Time;durP1;ratioP1;P1;durP2;ratioP2;P2;SDS_P1;SDS_P2;PMS_P1;PMS_P2;Temp;Humidity;BMP_temperature;BMP_pressure;BME280_temperature;BME280_humidity;BME280_pressure;Samples;Min_cycle;Max_cycle;Signal;HPM_P1;HPM_P2
2023/07/22 00:02:22;;;;;;;12.75;11.75;;;13.70;85.10;;;;;;5106075;28;20110;-73
2023/07/22 00:04:48;;;;;;;13.18;12.43;;;13.40;86.30;;;;;;5090255;28;20070;-73
2023/07/22 00:07:15;;;;;;;16.77;13.55;;;13.40;86.90;;;;;;5106492;28;20027;-72
2023/07/22 00:09:41;;;;;;;14.35;13.40;;;13.30;87.80;;;;;;5087875;28;20036;-72
2023/07/22 00:12:08;;;;;;;14.85;13.88;;;13.40;87.70;;;;;;5108922;28;20111;-72
2023/07/22 00:14:35;;;;;;;15.10;14.23;;;13.30;88.40;;;;;;5107914;28;20119;-72
2023/07/22 00:17:01;;;;;;;16.27;15.07;;;13.20;89.40;;;;;;5104022;28;20031;-73
2023/07/22 00:19:26;;;;;;;15.13;14.23;;;13.20;90.00;;;;;;5103321;28;20036;-74
2023/07/22 00:21:52;;;;;;;18.48;17.17;;;13.20;90.00;;;;;;5103083;28;20032;-73
2023/07/22 00:24:18;;;;;;;17.73;15.85;;;13.10;90.30;;;;;;5104542;28;20063;-74
2023/07/22 00:26:44;;;;;;;16.38;15.23;;;13.10;90.40;;;;;;5106939;28;20122;-73
2023/07/22 00:29:10;;;;;;;18.00;16.58;;;13.10;90.50;;;;;;5103620;28;20119;-73
2023/07/22 00:31:35;;;;;;;17.67;16.55;;;13.10;90.70;;;;;;5105459;28;20035;-73
2023/07/22 00:34:01;;;;;;;18.90;17.75;;;13.10;90.90;;;;;;5104517;28;20123;-72
2023/07/22 00:36:26;;;;;;;18.67;17.58;;;13.10;91.10;;;;;;5105892;28;20031;-72
2023/07/22 00:38:55;;;;;;;19.13;17.80;;;13.00;91.20;;;;;;5088152;28;20048;-73
2023/07/22 00:41:20;;;;;;;17.90;16.70;;;13.00;91.20;;;;;;5103140;28;20024;-72
2023/07/22 00:43:46;;;;;;;18.55;17.30;;;13.00;91.30;;;;;;5105341;28;20038;-72
2023/07/22 00:46:11;;;;;;;18.48;17.38;;;12.90;91.20;;;;;;5108145;28;20036;-72
2023/07/22 00:48:38;;;;;;;21.42;19.80;;;12.80;91.20;;;;;;5107533;28;20109;-72
2023/07/22 00:51:04;;;;;;;20.52;19.33;;;12.80;91.30;;;;;;5106545;28;20055;-73
2023/07/22 00:53:30;;;;;;;19.60;18.35;;;12.80;91.40;;;;;;5104194;28;20066;-72
2023/07/22 00:55:55;;;;;;;20.13;18.80;;;12.70;91.40;;;;;;5106356;28;20027;-73
2023/07/22 00:58:21;;;;;;;22.30;21.00;;;12.70;91.40;;;;;;5107584;28;20478;-71
2023/07/22 01:00:48;;;;;;;23.23;21.70;;;12.70;91.40;;;;;;5107944;28;20081;-72
2023/07/22 01:03:14;;;;;;;23.40;21.98;;;12.70;91.50;;;;;;5105711;28;20035;-72
2023/07/22 01:05:41;;;;;;;24.83;23.40;;;12.60;91.60;;;;;;5107698;28;20042;-72
2023/07/22 01:08:07;;;;;;;24.60;23.20;;;12.60;91.70;;;;;;5105142;28;20027;-73
2023/07/22 01:10:33;;;;;;;28.02;26.45;;;12.60;92.10;;;;;;5108189;28;20028;-72
2023/07/22 01:12:58;;;;;;;24.40;23.15;;;12.60;92.40;;;;;;5104226;28;20032;-72
2023/07/22 01:15:25;;;;;;;22.65;21.42;;;12.60;92.30;;;;;;5107243;28;20027;-73
2023/07/22 01:17:52;;;;;;;25.45;23.85;;;12.70;92.10;;;;;;5106113;28;20477;-72
2023/07/22 01:20:18;;;;;;;25.00;23.55;;;12.70;91.90;;;;;;5107951;28;20027;-73
2023/07/22 01:22:54;;;;;;;27.95;26.23;;;12.80;91.80;;;;;;5106028;28;20106;-72
2023/07/22 01:25:23;;;;;;;27.05;25.58;;;12.70;92.10;;;;;;5104506;28;20512;-72
2023/07/22 01:27:52;;;;;;;35.42;33.70;;;12.60;92.30;;;;;;5107041;28;20043;-72
2023/07/22 01:30:19;;;;;;;25.83;23.85;;;12.60;92.70;;;;;;5105920;28;20028;-72
2023/07/22 01:32:45;;;;;;;30.75;28.75;;;12.70;92.40;;;;;;5083867;28;20056;-72
2023/07/22 01:35:11;;;;;;;27.38;25.58;;;12.50;92.90;;;;;;5105850;28;20020;-73
2023/07/22 01:37:37;;;;;;;28.75;27.13;;;12.60;92.50;;;;;;5102285;28;20043;-73
2023/07/22 01:40:11;;;;;;;33.97;32.08;;;12.60;92.50;;;;;;5106007;28;20385;-72
2023/07/22 01:42:41;;;;;;;28.95;27.25;;;12.50;92.70;;;;;;5103851;28;20153;-73
2023/07/22 01:45:07;;;;;;;29.63;27.93;;;12.50;93.40;;;;;;5103930;28;20020;-72
2023/07/22 01:47:38;;;;;;;30.00;28.42;;;12.40;93.10;;;;;;5088474;28;20038;-72
2023/07/22 01:50:07;;;;;;;33.08;31.10;;;12.40;93.00;;;;;;5105101;28;20039;-73
2023/07/22 01:52:33;;;;;;;31.10;29.42;;;12.50;93.20;;;;;;5106837;28;20031;-73
2023/07/22 01:54:58;;;;;;;30.25;28.50;;;12.50;93.10;;;;;;5087094;28;20158;-73
2023/07/22 01:57:24;;;;;;;28.55;27.02;;;12.60;93.70;;;;;;5106001;28;20047;-72
2023/07/22 01:59:50;;;;;;;28.10;26.65;;;12.60;93.00;;;;;;5104061;28;20040;-73
2023/07/22 02:02:16;;;;;;;29.98;28.38;;;12.50;92.90;;;;;;5101262;28;20504;-72
2023/07/22 02:04:41;;;;;;;29.00;27.27;;;12.50;93.00;;;;;;5107522;28;20613;-73
2023/07/22 02:07:07;;;;;;;30.38;28.75;;;12.50;93.30;;;;;;5101074;28;20437;-72
2023/07/22 02:09:33;;;;;;;26.77;25.52;;;12.50;93.20;;;;;;5086618;28;20036;-72
2023/07/22 02:11:59;;;;;;;28.85;27.23;;;12.50;93.10;;;;;;5104382;28;20401;-72
2023/07/22 02:14:24;;;;;;;26.10;24.48;;;12.50;93.20;;;;;;5100809;28;20390;-73
2023/07/22 02:16:50;;;;;;;30.08;27.77;;;12.50;93.10;;;;;;5104027;28;20042;-74
2023/07/22 02:19:16;;;;;;;28.08;26.58;;;12.40;93.20;;;;;;5111760;28;20035;-73
2023/07/22 02:21:42;;;;;;;28.52;26.80;;;12.50;93.20;;;;;;5110219;28;20469;-73
2023/07/22 02:24:08;;;;;;;27.73;25.98;;;12.50;93.10;;;;;;5105270;28;20036;-74
2023/07/22 02:26:34;;;;;;;29.58;27.77;;;12.40;93.10;;;;;;5110900;28;20060;-72
2023/07/22 02:28:59;;;;;;;30.30;28.38;;;12.30;93.20;;;;;;5108457;28;20032;-73
2023/07/22 02:31:25;;;;;;;30.27;28.52;;;12.30;93.30;;;;;;5109280;28;20533;-73
2023/07/22 02:33:51;;;;;;;31.00;29.40;;;12.30;93.40;;;;;;5087620;28;20448;-72
2023/07/22 02:36:16;;;;;;;31.05;29.27;;;12.30;93.60;;;;;;5107438;28;20401;-73
2023/07/22 02:38:42;;;;;;;32.15;29.73;;;12.20;93.70;;;;;;5106425;28;20056;-72
2023/07/22 02:41:08;;;;;;;33.53;31.60;;;12.10;93.70;;;;;;5090060;28;20035;-72
2023/07/22 02:43:35;;;;;;;32.72;30.73;;;12.10;93.80;;;;;;5103506;28;20028;-72
2023/07/22 02:46:06;;;;;;;32.67;31.05;;;12.00;93.90;;;;;;5107328;28;20030;-72
2023/07/22 02:48:32;;;;;;;34.83;32.83;;;12.10;94.20;;;;;;5108144;28;20092;-72
2023/07/22 02:51:07;;;;;;;32.60;31.05;;;12.00;94.30;;;;;;5109661;28;20197;-72
2023/07/22 02:53:33;;;;;;;35.25;32.92;;;12.00;94.30;;;;;;5107012;28;20031;-73
2023/07/22 02:56:00;;;;;;;35.45;33.40;;;12.00;94.40;;;;;;5108594;28;20512;-72
2023/07/22 02:58:25;;;;;;;35.47;32.95;;;11.90;94.40;;;;;;5104124;28;20040;-73
2023/07/22 03:00:51;;;;;;;34.72;32.83;;;11.90;94.50;;;;;;5110621;28;20056;-72
2023/07/22 03:03:18;;;;;;;35.15;33.53;;;11.90;94.60;;;;;;5107442;28;20053;-72
2023/07/22 03:05:45;;;;;;;33.95;32.05;;;11.80;94.60;;;;;;5107570;28;20405;-72
2023/07/22 03:08:11;;;;;;;34.40;32.63;;;11.80;94.50;;;;;;5108344;28;20032;-73
2023/07/22 03:10:36;;;;;;;31.05;29.30;;;11.80;94.70;;;;;;5091916;28;20038;-72
2023/07/22 03:13:03;;;;;;;33.55;31.38;;;11.80;94.70;;;;;;5105022;28;20032;-73
2023/07/22 03:15:31;;;;;;;32.63;30.73;;;11.80;94.90;;;;;;5106620;28;20051;-72
2023/07/22 03:17:59;;;;;;;32.72;30.63;;;11.70;94.90;;;;;;5109307;28;20527;-72
2023/07/22 03:20:27;;;;;;;33.30;31.60;;;11.70;94.80;;;;;;5092526;28;20039;-72
2023/07/22 03:22:54;;;;;;;34.38;32.50;;;11.70;95.00;;;;;;5107904;28;20032;-73
2023/07/22 03:25:20;;;;;;;31.80;30.15;;;11.70;94.90;;;;;;5107362;28;20031;-73
2023/07/22 03:27:46;;;;;;;32.00;30.25;;;11.60;95.40;;;;;;5104243;28;20028;-72
2023/07/22 03:30:18;;;;;;;32.20;30.50;;;11.70;95.60;;;;;;5107261;28;20150;-72
2023/07/22 03:32:45;;;;;;;34.17;32.20;;;11.60;95.60;;;;;;5090795;28;20106;-72
2023/07/22 03:35:11;;;;;;;30.35;28.77;;;11.70;95.80;;;;;;5105346;28;20032;-72
2023/07/22 03:37:38;;;;;;;32.40;30.50;;;11.70;95.70;;;;;;5103459;28;20048;-72
2023/07/22 03:40:20;;;;;;;29.67;27.88;;;11.70;95.70;;;;;;5105553;28;20043;-72
2023/07/22 03:42:50;;;;;;;30.65;28.77;;;11.60;95.70;;;;;;5107234;28;20028;-72
2023/07/22 03:45:17;;;;;;;31.23;29.13;;;11.60;95.80;;;;;;5105503;28;20034;-72
2023/07/22 03:47:50;;;;;;;30.08;28.55;;;11.60;95.70;;;;;;5104853;28;20040;-72
2023/07/22 03:50:16;;;;;;;30.42;28.75;;;11.60;95.70;;;;;;5090031;28;20031;-73
2023/07/22 03:52:41;;;;;;;30.10;28.10;;;11.60;95.70;;;;;;5109031;28;20032;-72
2023/07/22 03:55:08;;;;;;;31.17;29.55;;;11.60;95.70;;;;;;5104273;28;20028;-73
2023/07/22 03:57:34;;;;;;;31.02;29.08;;;11.60;95.60;;;;;;5107792;28;20023;-72
2023/07/22 04:00:00;;;;;;;32.85;30.45;;;11.70;95.60;;;;;;5088725;28;20496;-72
2023/07/22 04:02:26;;;;;;;30.27;28.75;;;11.60;95.50;;;;;;5104277;28;20043;-72
2023/07/22 04:04:54;;;;;;;30.20;28.10;;;11.60;95.60;;;;;;5100955;28;20564;-72
2023/07/22 04:07:20;;;;;;;29.80;27.92;;;11.60;95.80;;;;;;5106910;28;20055;-72
2023/07/22 04:09:45;;;;;;;29.30;27.83;;;11.60;95.60;;;;;;5103536;28;20120;-72
2023/07/22 04:12:11;;;;;;;29.70;28.20;;;11.70;95.70;;;;;;5106011;28;20023;-72
2023/07/22 04:14:39;;;;;;;30.73;29.23;;;11.60;95.50;;;;;;5102944;28;20051;-73
2023/07/22 04:17:05;;;;;;;29.67;28.02;;;11.60;95.40;;;;;;5102246;28;20111;-72
2023/07/22 04:19:30;;;;;;;30.27;28.67;;;11.70;95.70;;;;;;5105463;28;20173;-72
2023/07/22 04:21:56;;;;;;;31.35;29.65;;;11.80;95.70;;;;;;5108184;28;20024;-72
2023/07/22 04:24:22;;;;;;;30.52;28.90;;;11.80;95.50;;;;;;5106115;28;20397;-73
2023/07/22 04:26:48;;;;;;;30.98;29.27;;;11.80;95.40;;;;;;5103950;27;20048;-72
2023/07/22 04:29:14;;;;;;;31.20;29.67;;;11.90;95.30;;;;;;5108385;27;20363;-72
2023/07/22 04:31:40;;;;;;;31.77;30.15;;;11.90;95.30;;;;;;5108011;28;20554;-72
2023/07/22 04:34:06;;;;;;;31.45;29.48;;;12.00;95.40;;;;;;5105154;28;20554;-72
2023/07/22 04:36:32;;;;;;;33.15;31.15;;;11.90;95.90;;;;;;5108426;28;20067;-73
2023/07/22 04:38:57;;;;;;;48.38;44.28;;;12.00;95.60;;;;;;5106636;28;20129;-73
2023/07/22 04:41:23;;;;;;;42.97;39.60;;;12.00;95.50;;;;;;5103576;28;20035;-73
2023/07/22 04:43:50;;;;;;;34.55;31.63;;;12.00;95.30;;;;;;5089563;28;20024;-72
2023/07/22 04:46:16;;;;;;;30.90;29.30;;;12.10;95.40;;;;;;5108441;28;20039;-72
2023/07/22 04:48:42;;;;;;;31.63;29.58;;;12.10;95.20;;;;;;5104827;28;20031;-73
2023/07/22 04:51:08;;;;;;;32.72;30.92;;;12.20;95.30;;;;;;5084486;28;20478;-72
2023/07/22 04:53:34;;;;;;;33.13;30.92;;;12.30;95.00;;;;;;5107202;28;20036;-72
2023/07/22 04:55:59;;;;;;;31.15;29.38;;;12.30;94.90;;;;;;5105547;28;20135;-73
2023/07/22 04:58:25;;;;;;;31.27;28.95;;;12.30;95.00;;;;;;5103180;28;20035;-73
2023/07/22 05:00:51;;;;;;;30.20;28.45;;;12.50;95.00;;;;;;5105655;28;20020;-72
2023/07/22 05:03:18;;;;;;;32.00;29.70;;;12.50;94.70;;;;;;5103783;28;20027;-73
2023/07/22 05:05:44;;;;;;;33.75;32.00;;;12.50;94.80;;;;;;5104420;28;20035;-73
2023/07/22 05:08:10;;;;;;;33.00;31.20;;;12.60;94.40;;;;;;5103350;28;20398;-74
2023/07/22 05:10:36;;;;;;;31.83;30.02;;;12.70;94.40;;;;;;5104778;28;20115;-72
2023/07/22 05:13:02;;;;;;;31.85;29.95;;;12.80;94.40;;;;;;5105650;28;20771;-74
2023/07/22 05:15:28;;;;;;;32.38;30.77;;;12.80;94.20;;;;;;5103005;28;20050;-72
2023/07/22 05:17:53;;;;;;;30.83;28.98;;;12.80;94.20;;;;;;5084377;28;20044;-72
2023/07/22 05:20:19;;;;;;;32.63;30.77;;;12.90;94.00;;;;;;5105440;28;20063;-72
2023/07/22 05:22:45;;;;;;;33.72;31.75;;;13.00;94.00;;;;;;5107029;28;20123;-74
2023/07/22 05:25:10;;;;;;;32.33;30.35;;;13.00;93.80;;;;;;5105252;28;20032;-72
2023/07/22 05:27:36;;;;;;;33.00;31.17;;;13.10;94.00;;;;;;5105599;28;20039;-72
2023/07/22 05:30:03;;;;;;;32.30;30.65;;;13.20;93.80;;;;;;5104291;28;20027;-73
2023/07/22 05:32:29;;;;;;;34.20;32.28;;;13.30;93.80;;;;;;5106145;28;20880;-73
2023/07/22 05:34:56;;;;;;;32.92;30.83;;;13.40;93.80;;;;;;5106370;28;20040;-73
2023/07/22 05:37:22;;;;;;;34.28;32.20;;;13.50;93.70;;;;;;5104237;28;20051;-73
2023/07/22 05:39:48;;;;;;;32.35;30.75;;;13.60;93.50;;;;;;5105024;28;20027;-72
2023/07/22 05:42:13;;;;;;;35.00;33.00;;;13.70;93.60;;;;;;5089406;28;20028;-72
2023/07/22 05:44:39;;;;;;;36.30;34.10;;;13.70;93.50;;;;;;5106490;28;20085;-73
2023/07/22 05:47:05;;;;;;;35.92;33.60;;;13.90;93.30;;;;;;5106116;28;20031;-73
2023/07/22 05:49:31;;;;;;;34.30;32.20;;;13.90;93.10;;;;;;5107216;28;21121;-72
2023/07/22 05:51:56;;;;;;;35.25;33.05;;;14.10;93.00;;;;;;5109112;28;20024;-73
2023/07/22 05:54:22;;;;;;;37.35;35.42;;;14.20;93.10;;;;;;5105482;28;20039;-73
2023/07/22 05:56:48;;;;;;;37.60;35.42;;;14.30;93.00;;;;;;5106306;28;20078;-72
2023/07/22 05:59:14;;;;;;;37.40;35.47;;;14.30;92.30;;;;;;5109247;27;21333;-73
2023/07/22 06:01:40;;;;;;;36.17;34.15;;;14.50;92.80;;;;;;5109225;28;20461;-73
2023/07/22 06:04:06;;;;;;;38.67;36.47;;;14.60;92.90;;;;;;5108908;28;20456;-73
2023/07/22 06:06:31;;;;;;;37.58;35.55;;;14.60;92.20;;;;;;5107533;28;20067;-72
2023/07/22 06:08:57;;;;;;;38.92;37.05;;;14.60;92.00;;;;;;5111127;28;20059;-73
2023/07/22 06:11:24;;;;;;;36.83;34.72;;;14.70;92.40;;;;;;5107099;28;20618;-73
2023/07/22 06:13:49;;;;;;;37.65;35.85;;;14.80;92.10;;;;;;5089992;28;20514;-73
2023/07/22 06:16:15;;;;;;;39.67;37.67;;;14.90;91.50;;;;;;5108457;28;20042;-73
2023/07/22 06:18:40;;;;;;;41.95;39.80;;;15.00;91.80;;;;;;5104254;28;20043;-72
2023/07/22 06:21:06;;;;;;;41.17;39.15;;;15.00;91.50;;;;;;5109876;28;20063;-73
2023/07/22 06:23:32;;;;;;;36.47;34.75;;;15.20;92.00;;;;;;5106293;28;20055;-74
2023/07/22 06:25:58;;;;;;;44.10;41.92;;;15.40;91.50;;;;;;5089379;28;20023;-73
2023/07/22 06:28:23;;;;;;;41.38;39.45;;;15.50;91.50;;;;;;5087937;28;20104;-74
2023/07/22 06:30:49;;;;;;;36.95;35.20;;;15.70;91.00;;;;;;5092933;28;20028;-72
2023/07/22 06:33:16;;;;;;;34.45;32.55;;;15.70;90.60;;;;;;5105877;28;20028;-73
2023/07/22 06:35:42;;;;;;;36.85;34.97;;;15.80;90.40;;;;;;5110748;28;20032;-73
2023/07/22 06:38:07;;;;;;;35.22;33.55;;;15.90;90.40;;;;;;5103309;28;20096;-72
2023/07/22 06:40:33;;;;;;;32.72;31.02;;;16.10;90.10;;;;;;5109572;27;20024;-72
2023/07/22 06:42:59;;;;;;;21.90;20.70;;;16.10;89.60;;;;;;5105362;27;20110;-71
2023/07/22 06:45:25;;;;;;;27.20;25.55;;;16.20;87.70;;;;;;5108523;28;20473;-72
2023/07/22 06:47:50;;;;;;;22.77;21.52;;;16.30;88.30;;;;;;5106306;28;20066;-72
2023/07/22 06:50:16;;;;;;;20.10;19.00;;;16.40;87.30;;;;;;5110763;27;20059;-74
2023/07/22 06:52:42;;;;;;;27.10;25.83;;;16.40;86.20;;;;;;5090330;28;20066;-74
2023/07/22 06:55:11;;;;;;;20.43;19.23;;;16.50;88.50;;;;;;5108210;28;20035;-75
2023/07/22 06:57:37;;;;;;;19.73;18.52;;;16.70;84.90;;;;;;5089464;28;20032;-74
2023/07/22 07:00:05;;;;;;;18.60;17.50;;;16.80;86.40;;;;;;5110494;28;20032;-74
2023/07/22 07:02:30;;;;;;;21.02;19.85;;;16.90;86.20;;;;;;5108273;28;21556;-74
2023/07/22 07:04:56;;;;;;;19.05;17.95;;;16.90;82.30;;;;;;5088369;28;20031;-74
2023/07/22 07:07:22;;;;;;;20.38;19.02;;;17.10;84.40;;;;;;5106079;28;20052;-74
2023/07/22 07:09:47;;;;;;;19.10;18.00;;;17.30;82.00;;;;;;5106046;28;20041;-73
2023/07/22 07:12:13;;;;;;;18.50;17.50;;;17.40;81.60;;;;;;5089499;28;20039;-74
2023/07/22 07:14:38;;;;;;;17.77;16.77;;;17.50;78.70;;;;;;5089139;28;20032;-74
2023/07/22 07:17:05;;;;;;;15.65;14.65;;;17.70;78.90;;;;;;5089954;28;20036;-75
2023/07/22 07:19:31;;;;;;;13.63;12.75;;;17.80;75.90;;;;;;5089433;28;20084;-74
2023/07/22 07:21:56;;;;;;;13.93;13.07;;;17.90;73.70;;;;;;5107143;28;20020;-74
2023/07/22 07:24:22;;;;;;;13.10;12.45;;;17.90;71.20;;;;;;5102559;28;20092;-73
2023/07/22 07:26:48;;;;;;;14.15;13.35;;;18.10;73.80;;;;;;5107887;27;20120;-74
2023/07/22 07:29:13;;;;;;;14.27;13.48;;;18.10;69.80;;;;;;5105425;28;20440;-73
2023/07/22 07:31:39;;;;;;;15.93;15.07;;;18.30;72.30;;;;;;5091428;28;20055;-74
2023/07/22 07:34:06;;;;;;;14.68;13.77;;;18.40;75.00;;;;;;5105560;28;20036;-74
2023/07/22 07:36:35;;;;;;;14.40;13.10;;;18.60;72.10;;;;;;5104436;28;20461;-73
2023/07/22 07:39:01;;;;;;;14.18;13.32;;;18.70;72.30;;;;;;5107326;28;20051;-74
2023/07/22 07:41:27;;;;;;;13.52;12.82;;;18.60;69.70;;;;;;5089427;28;20032;-74
2023/07/22 07:43:53;;;;;;;12.55;11.65;;;18.70;68.60;;;;;;5107459;28;20115;-73
2023/07/22 07:46:22;;;;;;;13.15;12.27;;;18.80;64.20;;;;;;5105893;28;20119;-74
2023/07/22 07:48:59;;;;;;;13.95;12.90;;;18.90;61.50;;;;;;5086646;28;20024;-72
2023/07/22 07:51:26;;;;;;;12.68;11.82;;;19.00;61.00;;;;;;5107574;28;20080;-73
2023/07/22 07:53:52;;;;;;;13.20;12.40;;;19.10;60.80;;;;;;5107504;28;20118;-74
2023/07/22 07:56:19;;;;;;;12.77;11.98;;;19.10;60.40;;;;;;5106172;27;20512;-76
2023/07/22 07:59:05;;;;;;;12.90;12.10;;;19.30;60.80;;;;;;5103336;28;20026;-76
2023/07/22 08:01:31;;;;;;;12.40;11.80;;;19.50;60.50;;;;;;5105333;28;20047;-76
2023/07/22 08:03:57;;;;;;;13.75;13.05;;;19.60;62.50;;;;;;5103504;28;20051;-76
2023/07/22 08:06:23;;;;;;;12.88;12.18;;;19.70;55.30;;;;;;5100429;28;20032;-76
2023/07/22 08:08:49;;;;;;;12.82;11.98;;;19.70;55.20;;;;;;5089339;28;20494;-75
2023/07/22 08:11:16;;;;;;;12.68;12.07;;;20.00;57.00;;;;;;5103675;28;20035;-73
2023/07/22 08:13:43;;;;;;;12.63;11.88;;;20.20;57.00;;;;;;5100803;28;20032;-74
2023/07/22 08:16:11;;;;;;;12.70;11.68;;;20.40;56.00;;;;;;5106891;28;20032;-73
2023/07/22 08:18:40;;;;;;;12.23;11.60;;;20.30;56.50;;;;;;5107007;28;20513;-80
2023/07/22 08:21:07;;;;;;;12.45;11.57;;;20.50;58.50;;;;;;5090349;28;20063;-79
2023/07/22 08:23:33;;;;;;;13.00;12.23;;;20.50;54.70;;;;;;5102741;28;20533;-77
2023/07/22 08:25:59;;;;;;;13.55;12.75;;;20.80;58.10;;;;;;5103597;27;20498;-76
2023/07/22 08:28:25;;;;;;;11.93;11.25;;;20.90;54.30;;;;;;5105834;28;20089;-75
2023/07/22 08:30:55;;;;;;;12.73;11.82;;;20.70;55.00;;;;;;5069255;28;20512;-76
2023/07/22 08:33:21;;;;;;;12.70;12.00;;;20.40;53.50;;;;;;5083191;28;20110;-75
2023/07/22 08:35:47;;;;;;;12.50;11.52;;;20.10;55.20;;;;;;5104649;28;20041;-75
2023/07/22 08:38:14;;;;;;;13.07;12.38;;;19.80;55.30;;;;;;5105944;28;20044;-76
2023/07/22 08:40:40;;;;;;;15.65;14.85;;;20.30;54.30;;;;;;5086143;28;20040;-76
2023/07/22 08:43:08;;;;;;;13.43;12.63;;;20.50;49.70;;;;;;5106814;28;20019;-75
2023/07/22 08:45:38;;;;;;;14.45;13.75;;;20.90;54.00;;;;;;5099298;28;20676;-77
2023/07/22 08:48:07;;;;;;;;;;;20.90;48.60;;;;;;5104696;28;21201;-76
2023/07/22 08:50:47;;;;;;;15.00;14.30;;;21.00;49.20;;;;;;5069047;28;19919;-76
2023/07/22 08:53:13;;;;;;;15.07;14.37;;;21.00;49.10;;;;;;5099580;28;20039;-76
2023/07/22 08:55:42;;;;;;;13.32;12.43;;;21.10;45.50;;;;;;5103925;28;20028;-76
2023/07/22 08:58:09;;;;;;;15.65;14.95;;;21.20;51.00;;;;;;5103660;28;20035;-76
2023/07/22 09:00:35;;;;;;;15.48;14.68;;;21.30;43.30;;;;;;5071004;28;20188;-76
2023/07/22 09:03:02;;;;;;;16.83;15.80;;;21.50;47.60;;;;;;5089541;28;20021;-76
2023/07/22 09:05:28;;;;;;;28.08;26.92;;;21.80;41.60;;;;;;5102830;28;20019;-76
2023/07/22 09:07:56;;;;;;;16.45;15.55;;;21.60;39.30;;;;;;5104399;28;20068;-76
2023/07/22 09:10:24;;;;;;;17.98;17.17;;;21.70;43.00;;;;;;5105246;28;20077;-77
2023/07/22 09:12:51;;;;;;;21.83;20.83;;;21.90;42.00;;;;;;5087785;28;20035;-76
2023/07/22 09:15:18;;;;;;;16.50;15.68;;;22.00;42.70;;;;;;5106307;28;20027;-77
2023/07/22 09:17:45;;;;;;;23.10;22.10;;;22.50;45.90;;;;;;5086139;28;20039;-77
2023/07/22 09:20:15;;;;;;;39.08;37.47;;;22.40;40.60;;;;;;5103990;28;20073;-76
2023/07/22 09:22:51;;;;;;;19.70;18.70;;;22.30;40.10;;;;;;5103941;28;20020;-76
2023/07/22 09:25:24;;;;;;;29.45;28.05;;;22.70;42.40;;;;;;5102185;28;20035;-77
2023/07/22 09:27:55;;;;;;;32.70;31.33;;;22.80;38.50;;;;;;5088155;28;20059;-76
2023/07/22 09:30:33;;;;;;;31.17;29.88;;;22.70;39.60;;;;;;5104810;28;20035;-77
2023/07/22 09:33:01;;;;;;;32.83;31.45;;;22.90;43.20;;;;;;5084759;28;20038;-77
2023/07/22 09:35:48;;;;;;;33.15;31.75;;;23.20;39.10;;;;;;5085043;28;20506;-76
2023/07/22 09:38:17;;;;;;;29.33;28.08;;;23.10;40.50;;;;;;5083633;28;20043;-76
2023/07/22 09:40:43;;;;;;;24.75;23.55;;;23.00;38.40;;;;;;5102817;28;20095;-76
2023/07/22 09:43:12;;;;;;;36.17;34.53;;;23.20;44.40;;;;;;5098741;28;20807;-76
2023/07/22 09:45:38;;;;;;;34.85;33.45;;;23.50;38.50;;;;;;5105937;28;20032;-75
2023/07/22 09:48:04;;;;;;;31.15;29.77;;;22.60;37.90;;;;;;5104493;28;20377;-76
2023/07/22 09:50:29;;;;;;;35.72;34.05;;;21.90;41.40;;;;;;5101920;28;20034;-75
2023/07/22 09:52:58;;;;;;;35.45;34.05;;;21.50;41.70;;;;;;5083139;28;20401;-75
2023/07/22 09:55:25;;;;;;;30.70;29.15;;;22.10;37.70;;;;;;5104096;28;20081;-75
2023/07/22 09:58:00;;;;;;;32.40;31.00;;;21.70;40.50;;;;;;5068102;28;20416;-75
2023/07/22 10:00:35;;;;;;;28.98;27.60;;;22.60;41.70;;;;;;5102625;28;20497;-75
2023/07/22 10:03:04;;;;;;;32.25;30.95;;;22.80;40.30;;;;;;5103700;28;20042;-75
2023/07/22 10:05:34;;;;;;;30.13;28.83;;;23.00;38.60;;;;;;5101485;28;20024;-75
2023/07/22 10:08:00;;;;;;;32.17;30.90;;;23.40;40.40;;;;;;5087633;28;20300;-75
2023/07/22 10:10:34;;;;;;;33.03;31.70;;;23.40;37.10;;;;;;5099704;28;20028;-75
2023/07/22 10:13:00;;;;;;;40.28;38.58;;;23.80;38.00;;;;;;5086390;28;20032;-76
2023/07/22 10:15:29;;;;;;;40.75;39.05;;;24.20;36.10;;;;;;5097616;28;20032;-75
2023/07/22 10:17:56;;;;;;;111.38;107.25;;;23.80;34.80;;;;;;5089029;28;20501;-76
2023/07/22 10:20:23;;;;;;;36.60;35.20;;;23.50;34.60;;;;;;5086953;28;20412;-75
2023/07/22 10:22:50;;;;;;;69.22;66.63;;;24.10;37.50;;;;;;5103471;28;20027;-76
2023/07/22 10:25:17;;;;;;;98.55;95.03;;;23.80;36.00;;;;;;5088608;28;20077;-76
2023/07/22 10:27:44;;;;;;;87.32;83.72;;;23.80;35.40;;;;;;5104039;28;20119;-76
2023/07/22 10:30:14;;;;;;;131.10;125.95;;;24.00;33.80;;;;;;5092126;28;20512;-75
2023/07/22 10:32:51;;;;;;;;;;;23.40;35.10;;;;;;5069098;28;20118;-75
2023/07/22 10:35:38;;;;;;;85.18;82.05;;;23.90;38.20;;;;;;5106092;28;19947;-76
2023/07/22 10:38:15;;;;;;;91.82;88.53;;;24.40;35.20;;;;;;5093338;27;20129;-76
2023/07/22 10:40:51;;;;;;;35.33;33.83;;;24.40;34.80;;;;;;5107467;27;20549;-74
2023/07/22 10:43:18;;;;;;;135.70;129.57;;;24.30;35.10;;;;;;5106799;28;20036;-75
2023/07/22 10:45:51;;;;;;;118.25;113.93;;;23.30;35.80;;;;;;5090480;28;20042;-72
2023/07/22 10:48:17;;;;;;;64.22;61.85;;;23.10;41.20;;;;;;5107701;28;20032;-73
2023/07/22 10:50:49;;;;;;;171.40;163.88;;;23.70;37.20;;;;;;5091651;28;20111;-73
2023/07/22 10:53:26;;;;;;;68.72;66.20;;;23.90;35.10;;;;;;5105497;27;20067;-73
2023/07/22 10:56:14;;;;;;;58.35;56.13;;;24.40;42.10;;;;;;5109053;28;20111;-76
2023/07/22 10:58:46;;;;;;;47.33;45.53;;;23.50;38.30;;;;;;5090809;28;20020;-75
2023/07/22 11:01:29;;;;;;;61.13;58.80;;;24.30;38.60;;;;;;5107435;28;20019;-77
2023/07/22 11:04:17;;;;;;;99.57;95.95;;;25.20;35.50;;;;;;5105892;27;20023;-74
2023/07/22 11:06:46;;;;;;;135.43;130.63;;;25.70;36.80;;;;;;5105730;28;20040;-74
2023/07/22 11:09:30;;;;;;;171.50;165.52;;;25.70;33.40;;;;;;5109690;27;20498;-74
2023/07/22 11:11:59;;;;;;;186.13;179.55;;;25.60;31.50;;;;;;5090384;28;20133;-74
2023/07/22 11:15:03;;;;;;;194.70;188.07;;;26.20;33.80;;;;;;5105746;28;20655;-75
2023/07/22 11:17:31;;;;;;;168.25;162.40;;;26.40;31.30;;;;;;5094883;28;20293;-75
2023/07/22 11:19:57;;;;;;;143.88;138.68;;;25.90;33.30;;;;;;5090767;28;20032;-75
2023/07/22 11:22:23;;;;;;;138.30;133.40;;;24.50;34.90;;;;;;5086620;28;20036;-75
2023/07/22 11:24:49;;;;;;;75.22;72.43;;;24.10;34.70;;;;;;5091676;28;20038;-75
2023/07/22 11:27:15;;;;;;;141.02;136.00;;;24.20;40.40;;;;;;5107437;28;20480;-75
2023/07/22 11:29:41;;;;;;;111.60;107.65;;;24.70;34.80;;;;;;5107096;28;20042;-76
2023/07/22 11:32:15;;;;;;;120.38;115.72;;;25.50;31.90;;;;;;5103916;28;20416;-74
2023/07/22 11:34:40;;;;;;;224.02;215.70;;;25.10;34.10;;;;;;5110753;28;20048;-74
2023/07/22 11:37:06;;;;;;;192.55;185.55;;;25.10;32.80;;;;;;5106082;28;20405;-74
2023/07/22 11:39:32;;;;;;;172.07;166.02;;;24.50;35.20;;;;;;5088500;28;20081;-74
2023/07/22 11:42:01;;;;;;;118.07;113.88;;;25.40;35.90;;;;;;5106077;28;20123;-74
2023/07/22 11:44:28;;;;;;;249.57;240.50;;;26.40;35.70;;;;;;5090611;28;20028;-74
2023/07/22 11:46:54;;;;;;;255.65;246.45;;;27.00;29.20;;;;;;5088881;27;20046;-74
2023/07/22 11:49:37;;;;;;;1999.90;999.90;;;27.30;33.30;;;;;;5108405;27;20027;-75
2023/07/22 11:52:08;;;;;;;1999.90;999.90;;;27.40;29.80;;;;;;5106657;27;20067;-73
2023/07/22 11:54:39;;;;;;;1999.90;999.90;;;26.50;29.30;;;;;;5112317;27;20101;-72
2023/07/22 11:57:17;;;;;;;1999.90;999.90;;;27.30;29.00;;;;;;5089072;28;20099;-73
2023/07/22 11:59:47;;;;;;;1999.90;999.90;;;27.80;30.20;;;;;;5106024;28;20046;-72
2023/07/22 12:02:20;;;;;;;1999.90;999.90;;;27.50;28.80;;;;;;5103507;28;20035;-74
2023/07/22 12:05:03;;;;;;;1999.90;999.90;;;27.00;28.30;;;;;;5103222;28;20155;-73
2023/07/22 12:07:34;;;;;;;1999.90;999.90;;;28.30;29.20;;;;;;5104500;28;20028;-73
2023/07/22 12:10:05;;;;;;;1999.90;999.90;;;29.00;27.90;;;;;;5102944;28;20490;-72
2023/07/22 12:12:42;;;;;;;1999.90;999.90;;;29.50;28.50;;;;;;5104965;28;20039;-73
2023/07/22 12:15:19;;;;;;;1999.90;999.90;;;29.80;25.00;;;;;;5104777;28;20024;-73
2023/07/22 12:17:55;;;;;;;1999.90;999.90;;;29.40;25.90;;;;;;5104336;28;20109;-73
2023/07/22 12:20:28;;;;;;;1999.90;999.90;;;29.30;27.30;;;;;;5103234;28;20038;-74
2023/07/22 12:22:55;;;;;;;1999.90;999.90;;;29.30;28.20;;;;;;5106445;28;20031;-73
2023/07/22 12:25:21;;;;;;;1999.90;999.90;;;28.50;27.00;;;;;;5103315;28;20035;-74
2023/07/22 12:27:49;;;;;;;1999.90;999.90;;;28.60;31.60;;;;;;5104104;28;20028;-73
2023/07/22 12:30:16;;;;;;;1999.90;999.90;;;29.10;27.30;;;;;;5104982;28;20040;-73